Time;durP1;ratioP1;P1;durP2;ratioP2;P2;SDS_P1;SDS_P2;PMS_P1;PMS_P2;Temp;Humidity;BMP_temperature;BMP_pressure;BME280_temperature;BME280_humidity;BME280_pressure;Samples;Min_cycle;Max_cycle;Signal;HPM_P1;HPM_P2
2023/11/18 00:01:24;;;;;;;6.70;6.00;;;;;;;8.87;98.66;98964.63;4169604;28;20198;-86
2023/11/18 00:03:27;;;;;;;7.70;6.65;;;;;;;8.88;99.03;98964.56;4173076;28;20209;-86
2023/11/18 00:05:29;;;;;;;7.63;6.80;;;;;;;8.87;99.63;98962.91;4174754;28;20237;-86
2023/11/18 00:07:33;;;;;;;9.20;6.65;;;;;;;8.88;98.59;98968.94;4175833;28;20206;-86
2023/11/18 00:09:36;;;;;;;8.70;7.25;;;;;;;8.87;98.33;98965.50;4170912;28;20876;-87
2023/11/18 00:11:38;;;;;;;8.77;7.13;;;;;;;8.87;98.92;98968.09;4160620;28;20939;-86
2023/11/18 00:13:42;;;;;;;8.30;7.10;;;;;;;8.87;98.86;98959.44;4159352;28;20260;-86
2023/11/18 00:15:47;;;;;;;10.25;8.68;;;;;;;8.87;99.26;98970.69;4158858;28;20364;-86
2023/11/18 00:17:52;;;;;;;9.10;7.82;;;;;;;8.87;98.53;98970.69;4183046;28;24168;-87
2023/11/18 00:19:56;;;;;;;8.40;6.90;;;;;;;8.87;99.71;98975.91;4183391;28;20307;-86
2023/11/18 00:21:59;;;;;;;8.68;7.75;;;;;;;8.88;99.56;98972.34;4172110;28;20674;-87
2023/11/18 00:24:02;;;;;;;7.95;6.75;;;;;;;8.90;98.85;98980.09;4158131;28;20618;-86
2023/11/18 00:26:08;;;;;;;8.00;6.72;;;;;;;8.90;100.00;98970.56;4158482;28;20219;-86
2023/11/18 00:28:11;;;;;;;9.90;7.20;;;;;;;8.90;99.83;98973.16;4153543;28;20646;-87
2023/11/18 00:30:16;;;;;;;7.80;6.90;;;;;;;8.89;99.43;98975.81;4182876;28;20213;-86
2023/11/18 00:32:19;;;;;;;9.90;7.85;;;;;;;8.90;99.06;98980.97;4167301;28;20624;-86
2023/11/18 00:34:24;;;;;;;8.82;7.20;;;;;;;8.89;99.38;98973.22;4155912;28;20299;-86
2023/11/18 00:36:28;;;;;;;8.75;7.85;;;;;;;8.91;98.46;98981.78;4172699;28;20236;-86
2023/11/18 00:38:32;;;;;;;8.73;7.28;;;;;;;8.91;98.80;98985.22;4169114;28;20293;-86
2023/11/18 00:40:35;;;;;;;8.80;7.25;;;;;;;8.90;99.22;98980.97;4185530;28;20644;-86
2023/11/18 00:42:38;;;;;;;9.18;7.50;;;;;;;8.92;100.00;98975.69;4184303;28;20202;-87
2023/11/18 00:44:43;;;;;;;9.27;7.05;;;;;;;8.92;99.76;98978.28;4173593;28;20207;-87
2023/11/18 00:46:46;;;;;;;9.07;8.13;;;;;;;8.92;100.00;98971.31;4185435;28;20199;-86
2023/11/18 00:48:50;;;;;;;9.40;7.55;;;;;;;8.92;99.48;98969.53;4174326;28;20259;-86
2023/11/18 00:50:56;;;;;;;9.30;7.50;;;;;;;8.95;100.00;98976.38;4161285;28;20716;-86
2023/11/18 00:52:59;;;;;;;10.10;7.75;;;;;;;8.95;99.99;98977.19;4172971;28;20205;-86
2023/11/18 00:55:02;;;;;;;10.18;8.25;;;;;;;8.98;99.85;98971.84;4188387;28;20599;-86
2023/11/18 00:57:07;;;;;;;10.73;8.32;;;;;;;8.98;99.06;98969.25;4178710;28;21836;-87
2023/11/18 00:59:10;;;;;;;8.63;7.03;;;;;;;8.99;99.77;98962.28;4176553;28;20212;-86
2023/11/18 01:01:17;;;;;;;9.45;7.65;;;;;;;9.00;100.00;98980.41;4160852;28;20202;-86
2023/11/18 01:03:21;;;;;;;9.45;7.88;;;;;;;9.00;99.79;98975.22;4180698;28;20672;-86
2023/11/18 01:05:24;;;;;;;8.77;7.88;;;;;;;8.99;99.23;98978.75;4168115;28;20222;-86
2023/11/18 01:07:29;;;;;;;9.27;8.20;;;;;;;8.98;98.93;98987.47;4154965;28;20216;-86
2023/11/18 01:09:36;;;;;;;12.23;9.35;;;;;;;9.00;99.29;98984.78;4187194;28;20225;-86
2023/11/18 01:11:40;;;;;;;11.90;8.70;;;;;;;8.99;99.69;98983.94;4161273;28;20196;-86
2023/11/18 01:14:03;;;;;;;11.32;8.52;;;;;;;8.97;99.93;98988.38;4188782;28;20637;-86
2023/11/18 01:16:07;;;;;;;8.90;7.90;;;;;;;9.01;98.84;98986.47;4176732;28;20225;-86
2023/11/18 01:18:10;;;;;;;10.98;9.63;;;;;;;8.99;99.08;98991.75;4162655;28;20716;-86
2023/11/18 01:20:14;;;;;;;9.77;8.73;;;;;;;9.02;99.46;98990.75;4156972;28;20214;-86
2023/11/18 01:22:21;;;;;;;9.68;8.10;;;;;;;8.96;99.32;98984.09;4178318;28;20202;-86
2023/11/18 01:24:26;;;;;;;10.57;9.13;;;;;;;8.95;99.53;98987.59;4176779;28;20620;-86
2023/11/18 01:26:29;;;;;;;10.55;8.77;;;;;;;8.95;99.25;98987.59;4168254;28;20236;-86
2023/11/18 01:28:36;;;;;;;10.60;9.18;;;;;;;8.96;99.28;98988.47;4186817;28;20943;-86
2023/11/18 01:30:39;;;;;;;12.25;9.25;;;;;;;8.97;98.87;98990.97;4184475;28;21316;-86
2023/11/18 01:32:42;;;;;;;12.45;9.32;;;;;;;8.97;99.31;99003.13;4175551;28;20202;-86
2023/11/18 01:34:50;;;;;;;12.52;8.60;;;;;;;8.96;99.32;99001.47;4168535;28;20203;-86
2023/11/18 01:36:53;;;;;;;10.23;9.10;;;;;;;8.96;99.75;99007.50;4165772;28;20632;-86
2023/11/18 01:38:57;;;;;;;10.18;8.75;;;;;;;8.96;98.97;99009.28;4176953;28;20229;-86
2023/11/18 01:41:01;;;;;;;10.40;8.90;;;;;;;8.96;99.70;99012.72;4177032;28;20228;-86
2023/11/18 01:43:11;;;;;;;10.25;8.98;;;;;;;8.95;99.49;99005.81;4186001;28;20713;-86
2023/11/18 01:45:16;;;;;;;11.27;8.95;;;;;;;8.95;99.77;99011.00;4159562;28;20645;-86
2023/11/18 01:47:19;;;;;;;11.85;9.32;;;;;;;8.95;99.14;99003.22;4174890;28;20629;-86
2023/11/18 01:49:23;;;;;;;10.30;8.52;;;;;;;8.95;99.39;99005.81;4184061;28;20202;-86
2023/11/18 01:51:26;;;;;;;13.60;8.70;;;;;;;8.95;99.73;98999.78;4170213;28;20711;-86
2023/11/18 01:53:30;;;;;;;12.77;8.77;;;;;;;8.95;99.27;99003.22;4168848;28;20217;-86
2023/11/18 01:55:34;;;;;;;11.05;8.50;;;;;;;8.93;99.24;99004.22;4153163;28;20215;-86
2023/11/18 01:57:39;;;;;;;12.20;8.10;;;;;;;8.89;99.22;98994.88;4166862;28;20301;-86
2023/11/18 01:59:43;;;;;;;10.30;7.82;;;;;;;8.88;99.04;98998.38;4154981;28;20271;-86
2023/11/18 02:01:49;;;;;;;10.85;8.05;;;;;;;8.90;98.38;98998.31;4169160;28;20206;-86
2023/11/18 02:03:52;;;;;;;9.88;7.90;;;;;;;8.89;99.23;98996.63;4174907;28;20640;-87
2023/11/18 02:05:55;;;;;;;8.82;7.38;;;;;;;8.91;98.47;99000.00;4156678;28;20746;-86
2023/11/18 02:08:00;;;;;;;8.63;7.63;;;;;;;8.89;99.04;98989.66;4173628;28;20331;-86
2023/11/18 02:10:08;;;;;;;9.30;7.47;;;;;;;8.90;97.96;98993.09;4156540;28;20639;-86
2023/11/18 02:12:20;;;;;;;10.25;7.38;;;;;;;8.91;99.01;98998.22;4168941;28;20228;-86
2023/11/18 02:14:27;;;;;;;9.55;7.43;;;;;;;8.91;98.26;99000.00;4174471;28;20202;-86
2023/11/18 02:16:32;;;;;;;10.48;7.93;;;;;;;8.91;98.51;98997.41;4176467;28;20224;-86
2023/11/18 02:18:36;;;;;;;10.75;7.25;;;;;;;8.91;98.54;98997.41;4169821;28;20295;-86
2023/11/18 02:20:40;;;;;;;9.55;7.15;;;;;;;8.91;99.16;99000.00;4185234;28;20668;-86
2023/11/18 02:22:44;;;;;;;9.43;7.97;;;;;;;8.91;98.56;99000.00;4160453;28;20206;-86
2023/11/18 02:24:47;;;;;;;10.35;7.82;;;;;;;8.91;98.32;99010.41;4160710;28;20647;-86
2023/11/18 02:26:51;;;;;;;9.70;7.85;;;;;;;8.90;99.48;99006.09;4184219;28;20251;-86
2023/11/18 02:28:54;;;;;;;9.02;7.50;;;;;;;8.88;99.43;99006.16;4163902;28;20214;-86
2023/11/18 02:31:03;;;;;;;9.57;7.60;;;;;;;8.86;99.09;99004.59;4172473;28;20790;-86
2023/11/18 02:33:14;;;;;;;10.15;7.32;;;;;;;8.85;98.72;99003.72;4172024;28;20221;-86
2023/11/18 02:35:22;;;;;;;9.27;6.65;;;;;;;8.81;98.50;99010.00;4166245;28;20293;-86
2023/11/18 02:37:26;;;;;;;8.30;7.20;;;;;;;8.78;98.29;99006.66;4154262;28;20250;-87
2023/11/18 02:39:34;;;;;;;10.63;7.43;;;;;;;8.76;98.75;99005.91;4154903;28;20222;-86
2023/11/18 02:41:39;;;;;;;8.23;6.85;;;;;;;8.75;97.53;99004.22;4156883;28;20905;-86
2023/11/18 02:43:45;;;;;;;9.77;7.32;;;;;;;8.75;97.75;99009.41;4157315;28;20216;-86
2023/11/18 02:45:48;;;;;;;10.90;7.65;;;;;;;8.75;98.08;99002.47;4171785;28;20197;-86
2023/11/18 02:47:55;;;;;;;11.30;7.63;;;;;;;8.77;98.06;99007.59;4167055;28;20221;-86
2023/11/18 02:50:05;;;;;;;8.20;6.93;;;;;;;8.79;97.51;99013.56;4170843;28;20202;-86
2023/11/18 02:52:09;;;;;;;10.90;7.60;;;;;;;8.80;98.84;98999.66;4175695;28;20209;-86
2023/11/18 02:54:13;;;;;;;8.75;6.63;;;;;;;8.80;98.38;99000.50;4163495;28;20692;-86
2023/11/18 02:56:18;;;;;;;8.55;7.43;;;;;;;8.81;98.60;99001.31;4158591;28;20202;-86
2023/11/18 02:58:21;;;;;;;9.10;7.05;;;;;;;8.81;98.75;98999.59;4150854;28;20270;-86
2023/11/18 03:00:28;;;;;;;8.93;7.03;;;;;;;8.83;99.15;99002.13;4182870;28;20710;-86
2023/11/18 03:02:31;;;;;;;10.48;7.40;;;;;;;8.84;98.92;98988.19;4156303;28;20225;-86
2023/11/18 03:04:35;;;;;;;9.05;7.15;;;;;;;8.85;98.92;98992.47;4170285;28;20998;-86
2023/11/18 03:06:40;;;;;;;9.38;6.85;;;;;;;8.85;99.39;98995.09;4160952;28;20692;-86
2023/11/18 03:08:43;;;;;;;8.90;7.47;;;;;;;8.86;98.69;98991.56;4184014;28;20206;-87
2023/11/18 03:10:47;;;;;;;8.20;6.90;;;;;;;8.87;97.98;98988.03;4174924;28;20206;-87
2023/11/18 03:12:50;;;;;;;9.68;7.43;;;;;;;8.87;98.37;98994.09;4171979;28;20637;-86
2023/11/18 03:14:53;;;;;;;10.15;7.50;;;;;;;8.90;97.94;98995.69;4155178;28;20206;-87
2023/11/18 03:16:58;;;;;;;8.98;6.93;;;;;;;8.87;97.17;98990.63;4167089;28;20606;-86
2023/11/18 03:19:01;;;;;;;7.95;6.78;;;;;;;8.86;97.82;98987.19;4170050;28;20220;-86
2023/11/18 03:21:06;;;;;;;9.20;7.28;;;;;;;8.85;97.80;98989.88;4154276;28;20298;-86
2023/11/18 03:23:09;;;;;;;10.32;7.88;;;;;;;8.85;98.26;98989.88;4181402;28;20300;-86
2023/11/18 03:25:12;;;;;;;10.10;7.07;;;;;;;8.85;97.85;98995.09;4173264;28;20204;-86
2023/11/18 03:27:15;;;;;;;9.00;7.43;;;;;;;8.84;98.40;98993.38;4172563;28;20234;-86
2023/11/18 03:29:18;;;;;;;9.23;7.28;;;;;;;8.84;97.97;98993.38;4173748;28;20214;-86
2023/11/18 03:31:20;;;;;;;8.88;7.28;;;;;;;8.86;98.42;98996.78;4171189;28;20225;-87
2023/11/18 03:33:25;;;;;;;9.20;7.68;;;;;;;8.88;98.12;98989.72;4149600;28;20297;-86
2023/11/18 03:35:27;;;;;;;9.68;7.95;;;;;;;8.85;98.38;98990.72;4185867;28;20205;-86
2023/11/18 03:37:31;;;;;;;9.75;8.30;;;;;;;8.89;97.86;98994.03;4169680;28;20232;-86
2023/11/18 03:39:34;;;;;;;15.93;7.95;;;;;;;8.89;98.34;98994.03;4174107;28;20703;-86
2023/11/18 03:41:37;;;;;;;11.02;8.77;;;;;;;8.88;98.82;98981.94;4159917;28;20308;-86
2023/11/18 03:43:40;;;;;;;10.00;7.95;;;;;;;8.87;98.56;98988.03;4176190;28;20200;-86
2023/11/18 03:45:43;;;;;;;10.20;7.68;;;;;;;8.87;98.09;99007.09;4168073;28;20210;-86
2023/11/18 03:47:47;;;;;;;10.93;9.07;;;;;;;8.86;98.22;98997.59;4152975;28;20443;-87
2023/11/18 03:49:54;;;;;;;11.88;8.85;;;;;;;8.86;98.36;98995.00;4169597;28;20201;-86
2023/11/18 03:51:57;;;;;;;10.20;8.40;;;;;;;8.86;98.63;98997.59;4159980;28;20207;-86
2023/11/18 03:54:01;;;;;;;12.57;9.13;;;;;;;8.86;97.82;98991.56;4174698;28;20247;-86
2023/11/18 03:56:04;;;;;;;11.82;8.55;;;;;;;8.86;98.92;98996.78;4169347;28;20293;-86
2023/11/18 03:58:08;;;;;;;12.02;8.65;;;;;;;8.87;98.55;99001.03;4182050;28;20229;-86
2023/11/18 04:00:13;;;;;;;12.38;8.35;;;;;;;8.87;97.79;99001.91;4171139;28;20223;-87
2023/11/18 04:02:19;;;;;;;9.95;8.38;;;;;;;8.87;98.28;98998.44;4165862;28;20712;-86
2023/11/18 04:04:22;;;;;;;8.43;7.22;;;;;;;8.86;98.07;98996.78;4156193;28;20207;-86
2023/11/18 04:06:27;;;;;;;11.48;8.60;;;;;;;8.84;98.54;98991.66;4167633;28;20205;-86
2023/11/18 04:08:30;;;;;;;9.45;7.55;;;;;;;8.84;97.93;98993.38;4164690;28;20297;-87
2023/11/18 04:10:33;;;;;;;12.55;9.70;;;;;;;8.84;98.35;98991.66;4156576;28;20211;-86
2023/11/18 04:12:37;;;;;;;11.32;8.45;;;;;;;8.84;97.65;98998.59;4169008;28;20285;-86
2023/11/18 04:14:40;;;;;;;10.98;8.68;;;;;;;8.81;98.65;98998.72;4182291;28;20308;-86
2023/11/18 04:16:46;;;;;;;11.05;8.25;;;;;;;8.81;98.31;98996.13;4163576;28;20211;-86
2023/11/18 04:18:48;;;;;;;10.20;8.20;;;;;;;8.80;99.17;98994.47;4176081;28;20232;-86
2023/11/18 04:20:51;;;;;;;11.35;9.30;;;;;;;8.80;97.91;98997.06;4178893;28;20751;-86
2023/11/18 04:22:56;;;;;;;10.35;8.35;;;;;;;8.79;98.77;99008.38;4187707;28;20207;-86
2023/11/18 04:24:58;;;;;;;8.93;7.90;;;;;;;8.78;97.83;99006.66;4174261;28;20296;-87
2023/11/18 04:27:02;;;;;;;10.20;8.35;;;;;;;8.81;98.36;98998.72;4187142;28;20697;-86
2023/11/18 04:29:05;;;;;;;10.40;8.35;;;;;;;8.80;97.79;99004.88;4184688;28;20211;-86
2023/11/18 04:31:08;;;;;;;10.85;8.73;;;;;;;8.81;97.81;98998.72;4161521;28;20232;-86
2023/11/18 04:33:14;;;;;;;10.27;8.45;;;;;;;8.81;98.21;99001.31;4160735;28;20601;-85
2023/11/18 04:35:17;;;;;;;11.32;7.82;;;;;;;8.79;97.96;98996.19;4171941;28;21147;-86
2023/11/18 04:37:20;;;;;;;8.48;6.85;;;;;;;8.77;97.66;99000.63;4175778;28;20205;-85
2023/11/18 04:39:25;;;;;;;8.80;7.80;;;;;;;8.77;98.79;99005.00;4184580;28;20249;-86
2023/11/18 04:41:28;;;;;;;11.63;8.20;;;;;;;8.75;98.44;99001.63;4174115;28;20215;-86
2023/11/18 04:43:31;;;;;;;11.43;8.48;;;;;;;8.74;97.59;98997.34;4160801;28;20595;-86
2023/11/18 04:45:47;;;;;;;9.73;7.30;;;;;;;8.74;98.43;98998.19;4162880;28;20204;-86
2023/11/18 04:47:51;;;;;;;10.00;8.73;;;;;;;8.77;98.70;99005.00;4161818;28;20195;-86
2023/11/18 04:49:55;;;;;;;10.73;8.60;;;;;;;8.79;97.59;99008.38;4167463;28;20296;-86
2023/11/18 04:51:58;;;;;;;10.27;8.38;;;;;;;8.79;98.16;98992.75;4185868;28;20292;-86
2023/11/18 04:54:03;;;;;;;11.50;8.48;;;;;;;8.78;97.51;98996.28;4176020;28;20210;-86
2023/11/18 04:56:09;;;;;;;11.23;8.23;;;;;;;8.77;96.39;98999.81;4167845;28;20211;-87
2023/11/18 04:58:13;;;;;;;10.30;8.40;;;;;;;8.78;97.53;99006.66;4166523;28;20313;-86
2023/11/18 05:00:17;;;;;;;10.27;8.23;;;;;;;8.78;97.57;99001.47;4156893;28;20198;-86
2023/11/18 05:02:20;;;;;;;10.93;8.27;;;;;;;8.75;97.32;98984.28;4186085;28;20236;-85
2023/11/18 05:04:24;;;;;;;9.98;7.55;;;;;;;8.75;98.46;98994.69;4171149;28;20206;-86
2023/11/18 05:06:27;;;;;;;9.93;7.68;;;;;;;8.74;98.08;98997.34;4160170;28;20203;-85
2023/11/18 05:08:33;;;;;;;10.85;7.75;;;;;;;8.70;97.91;98991.44;4171222;28;20209;-86
2023/11/18 05:10:36;;;;;;;12.40;7.72;;;;;;;8.71;97.63;98997.50;4188385;28;20225;-86
2023/11/18 05:12:43;;;;;;;11.27;8.18;;;;;;;8.71;97.41;98997.50;4186068;28;20210;-86
2023/11/18 05:14:49;;;;;;;9.50;7.90;;;;;;;8.70;98.03;98996.63;4170923;28;20256;-86
2023/11/18 05:16:53;;;;;;;11.15;9.00;;;;;;;8.71;97.84;99000.91;4183308;28;20208;-86
2023/11/18 05:18:56;;;;;;;11.30;7.95;;;;;;;8.73;97.59;99006.06;4183459;28;20248;-86
2023/11/18 05:21:00;;;;;;;9.65;7.95;;;;;;;8.69;97.65;99004.50;4173347;28;20206;-86
2023/11/18 05:23:04;;;;;;;9.25;7.70;;;;;;;8.69;98.83;99007.97;4184328;28;20210;-86
2023/11/18 05:25:08;;;;;;;10.98;9.00;;;;;;;8.67;98.25;99001.97;4158653;28;20297;-86
2023/11/18 05:27:11;;;;;;;11.55;8.60;;;;;;;8.68;98.25;99014.06;4156553;28;20293;-86
2023/11/18 05:29:16;;;;;;;10.73;8.30;;;;;;;8.67;97.92;99011.53;4168166;28;20236;-86
2023/11/18 05:31:20;;;;;;;12.10;9.00;;;;;;;8.67;98.78;99006.34;4183909;28;20222;-86
2023/11/18 05:33:22;;;;;;;11.52;9.27;;;;;;;8.65;97.57;99008.16;4188402;28;20204;-86
2023/11/18 05:35:28;;;;;;;14.70;9.32;;;;;;;8.65;98.94;99008.16;4185146;28;20288;-85
2023/11/18 05:37:35;;;;;;;11.23;8.82;;;;;;;8.64;99.30;99007.31;4172141;28;20204;-86
2023/11/18 05:39:42;;;;;;;13.68;9.45;;;;;;;8.65;98.61;99000.38;4161620;28;20281;-86
2023/11/18 05:41:49;;;;;;;13.77;9.90;;;;;;;8.64;98.93;98990.88;4162466;28;20686;-85
2023/11/18 05:43:52;;;;;;;11.00;8.90;;;;;;;8.64;97.88;98991.72;4188521;28;20212;-86
2023/11/18 05:48:15;;;;;;;10.82;7.53;;;;;;;8.69;98.19;99000.16;4169610;28;20655;-86
2023/11/18 05:50:18;;;;;;;11.35;8.38;;;;;;;8.72;98.13;99007.81;4185884;28;20216;-86
2023/11/18 05:52:22;;;;;;;10.43;7.63;;;;;;;8.74;97.75;99005.16;4160392;28;20214;-86
2023/11/18 05:54:25;;;;;;;10.20;8.18;;;;;;;8.74;98.69;99002.56;4158577;28;20298;-86
2023/11/18 05:56:28;;;;;;;11.15;8.50;;;;;;;8.76;98.19;98998.09;4188155;28;20213;-86
2023/11/18 05:58:32;;;;;;;11.32;7.68;;;;;;;8.77;97.73;98986.81;4167749;28;20292;-86
2023/11/18 06:00:35;;;;;;;9.77;7.68;;;;;;;8.75;98.23;98980.81;4173942;28;20211;-86
2023/11/18 06:02:45;;;;;;;10.88;8.13;;;;;;;8.74;98.42;98987.78;4185233;28;20640;-86
2023/11/18 06:04:49;;;;;;;10.60;7.78;;;;;;;8.74;98.04;98986.94;4176320;28;20203;-85
2023/11/18 06:06:52;;;;;;;10.30;7.50;;;;;;;8.72;97.00;98984.41;4183094;28;20291;-86
2023/11/18 06:08:54;;;;;;;9.50;7.72;;;;;;;8.68;96.95;98980.25;4173470;28;20210;-87
2023/11/18 06:10:58;;;;;;;9.88;7.80;;;;;;;8.67;98.22;98985.53;4172637;28;20253;-86
2023/11/18 06:13:01;;;;;;;11.27;7.75;;;;;;;8.62;97.99;98979.72;4188597;28;20205;-85
2023/11/18 06:15:05;;;;;;;10.20;7.80;;;;;;;8.56;97.38;98970.44;4156839;28;20207;-86
2023/11/18 06:17:08;;;;;;;10.63;7.70;;;;;;;8.56;97.30;98977.41;4173271;28;20593;-86
2023/11/18 06:19:13;;;;;;;11.15;8.35;;;;;;;8.55;97.42;98962.69;4173163;28;20774;-86
2023/11/18 06:21:16;;;;;;;9.48;7.72;;;;;;;8.49;97.64;98963.84;4187087;28;20217;-86
2023/11/18 06:23:21;;;;;;;19.08;7.32;;;;;;;8.44;96.35;98966.72;4156516;28;20211;-87
2023/11/18 06:25:25;;;;;;;8.85;6.63;;;;;;;8.36;96.77;98972.28;4175994;28;20245;-87
2023/11/18 06:27:29;;;;;;;12.38;7.93;;;;;;;8.31;96.18;98969.03;4184904;28;20202;-87
2023/11/18 06:29:32;;;;;;;11.93;7.80;;;;;;;8.30;97.42;98974.28;4176869;28;20198;-87
2023/11/18 06:31:36;;;;;;;11.65;7.78;;;;;;;8.26;96.99;98967.56;4173687;28;20964;-86
2023/11/18 06:33:42;;;;;;;12.20;7.93;;;;;;;8.25;96.48;98977.09;4173343;28;20201;-87
2023/11/18 06:35:48;;;;;;;11.70;7.93;;;;;;;8.23;96.89;98983.28;4169275;28;20581;-87
2023/11/18 06:37:52;;;;;;;8.68;6.53;;;;;;;8.17;96.80;98992.19;4157219;28;21031;-87
2023/11/18 06:39:56;;;;;;;9.52;7.60;;;;;;;8.11;95.91;98983.78;4168849;28;20218;-87
2023/11/18 06:41:59;;;;;;;10.38;7.50;;;;;;;8.08;95.97;98978.75;4186920;28;20212;-87
2023/11/18 06:44:09;;;;;;;11.00;7.45;;;;;;;8.06;96.10;98996.97;4156570;28;20209;-87
2023/11/18 06:46:14;;;;;;;9.85;7.35;;;;;;;8.03;96.00;98991.09;4170009;28;20687;-87
2023/11/18 06:48:19;;;;;;;9.90;7.80;;;;;;;8.04;96.91;98992.75;4169310;28;20209;-86
2023/11/18 06:50:24;;;;;;;10.68;7.60;;;;;;;8.05;97.16;99002.25;4185435;28;20204;-86
2023/11/18 06:52:29;;;;;;;11.70;7.65;;;;;;;8.05;95.56;99007.44;4157442;28;20203;-87
2023/11/18 06:54:33;;;;;;;11.48;8.60;;;;;;;8.04;95.95;99005.75;4188649;28;20197;-86
2023/11/18 06:56:36;;;;;;;12.73;9.05;;;;;;;8.04;97.28;98992.75;4174737;28;20292;-87
2023/11/18 06:58:40;;;;;;;11.40;8.35;;;;;;;8.02;96.65;98995.41;4172069;28;20206;-87
2023/11/18 07:00:44;;;;;;;10.63;7.85;;;;;;;8.05;97.20;98999.66;4164409;28;20652;-87
2023/11/18 07:02:47;;;;;;;10.32;8.15;;;;;;;8.07;96.34;98993.50;4186493;28;20275;-87
2023/11/18 07:04:50;;;;;;;10.90;8.13;;;;;;;8.04;96.58;98992.75;4156422;28;20206;-87
2023/11/18 07:06:53;;;;;;;9.98;7.43;;;;;;;8.03;95.98;98997.13;4153523;28;20245;-86
2023/11/18 07:09:00;;;;;;;9.45;7.22;;;;;;;8.08;95.64;98989.97;4186986;28;20202;-86
2023/11/18 07:11:05;;;;;;;11.93;8.30;;;;;;;8.09;96.39;98996.84;4174901;28;20271;-86
2023/11/18 07:13:10;;;;;;;10.95;8.15;;;;;;;8.12;95.71;98994.16;4188623;28;20443;-87
2023/11/18 07:15:14;;;;;;;11.60;8.95;;;;;;;8.16;97.26;99002.66;4164619;28;20224;-87
2023/11/18 07:17:18;;;;;;;11.60;8.63;;;;;;;8.19;96.69;99007.72;4174271;28;20686;-88
2023/11/18 07:19:23;;;;;;;15.77;8.30;;;;;;;8.34;98.30;99018.25;4165107;28;20313;-87
2023/11/18 07:21:26;;;;;;;11.60;8.43;;;;;;;8.51;96.74;99021.78;4173808;28;20750;-87
2023/11/18 07:23:29;;;;;;;10.05;7.85;;;;;;;8.57;97.39;99020.69;4174863;28;20217;-86
2023/11/18 07:25:34;;;;;;;11.00;6.90;;;;;;;8.54;97.28;99031.22;4168632;28;20204;-87
2023/11/18 07:27:37;;;;;;;10.77;7.82;;;;;;;8.60;96.50;99036.97;4183630;28;20255;-87
2023/11/18 07:29:40;;;;;;;10.35;7.88;;;;;;;8.72;97.52;99038.16;4157106;28;20259;-87
2023/11/18 07:31:45;;;;;;;8.70;7.18;;;;;;;8.86;97.54;99039.22;4158191;28;20253;-88
2023/11/18 07:33:50;;;;;;;13.27;7.13;;;;;;;9.08;98.87;99038.16;4169451;28;20275;-88
2023/11/18 07:35:53;;;;;;;11.85;7.50;;;;;;;9.25;97.20;99039.97;4172765;28;20244;-82
2023/11/18 07:37:58;;;;;;;9.70;7.60;;;;;;;9.38;96.34;99042.72;4156316;28;20649;-86
2023/11/18 07:40:02;;;;;;;10.10;7.28;;;;;;;9.55;95.60;99040.16;4159472;28;20225;-88
2023/11/18 07:42:08;;;;;;;10.85;7.35;;;;;;;9.70;94.68;99038.56;4174293;28;20556;-87
2023/11/18 07:44:12;;;;;;;10.05;7.10;;;;;;;9.79;93.88;99041.53;4156104;28;20210;-87
2023/11/18 07:46:16;;;;;;;9.18;6.97;;;;;;;9.86;93.15;99038.56;4159106;28;20288;-88
2023/11/18 07:48:20;;;;;;;9.63;7.88;;;;;;;9.88;92.81;99026.28;4159708;28;20210;-89
2023/11/18 07:50:23;;;;;;;9.77;7.22;;;;;;;9.84;92.68;99019.53;4183543;28;20244;-89
2023/11/18 07:52:27;;;;;;;11.18;8.85;;;;;;;9.83;91.82;99016.16;4175425;28;20218;-88
2023/11/18 07:54:31;;;;;;;7.88;6.35;;;;;;;9.85;92.34;99016.00;4172985;28;20202;-87
2023/11/18 07:56:36;;;;;;;8.25;6.22;;;;;;;9.88;92.75;99020.22;4174580;28;20740;-90
2023/11/18 07:58:45;;;;;;;7.10;5.47;;;;;;;9.89;93.54;99016.69;4187598;28;20706;-88
2023/11/18 08:00:49;;;;;;;6.85;5.50;;;;;;;9.94;92.04;99019.97;4184061;28;21020;-89
2023/11/18 08:02:54;;;;;;;6.55;5.38;;;;;;;10.05;92.51;99018.47;4173056;28;20214;-89
2023/11/18 08:04:57;;;;;;;6.95;5.75;;;;;;;10.12;92.98;99024.22;4155479;28;20898;-90
2023/11/18 08:07:01;;;;;;;9.52;5.65;;;;;;;10.16;92.50;99030.94;4186897;28;20301;-90
2023/11/18 08:09:03;;;;;;;7.00;5.30;;;;;;;10.12;91.82;99035.50;4180553;28;20473;-88
2023/11/18 08:11:07;;;;;;;7.70;6.20;;;;;;;10.09;92.18;99040.84;4156212;28;20649;-87
2023/11/18 08:13:12;;;;;;;7.53;6.72;;;;;;;10.05;91.25;99044.53;4167925;28;20321;-88
2023/11/18 08:15:18;;;;;;;10.40;7.60;;;;;;;10.02;91.49;99031.66;4189772;28;20202;-89
2023/11/18 08:17:21;;;;;;;8.73;7.00;;;;;;;10.01;91.15;99029.13;4171512;28;20206;-89
2023/11/18 08:19:25;;;;;;;8.90;6.93;;;;;;;9.99;90.58;99018.78;4165025;28;20655;-87
2023/11/18 08:21:28;;;;;;;9.00;6.80;;;;;;;9.97;90.17;99028.44;4186890;28;20694;-87
2023/11/18 08:23:31;;;;;;;7.03;5.60;;;;;;;9.99;90.47;99029.22;4171202;28;20628;-87
2023/11/18 08:25:35;;;;;;;8.40;6.37;;;;;;;10.01;90.82;99031.72;4185416;28;20624;-88
2023/11/18 08:27:39;;;;;;;8.18;6.13;;;;;;;10.03;91.25;99030.75;4184668;28;20685;-89
2023/11/18 08:29:42;;;;;;;6.20;5.03;;;;;;;10.03;91.38;99029.91;4172887;28;20212;-85
2023/11/18 08:31:47;;;;;;;9.83;6.67;;;;;;;10.05;89.88;99034.09;4168920;28;20660;-88
2023/11/18 08:33:50;;;;;;;7.78;5.43;;;;;;;10.06;90.66;99038.41;4180397;28;20627;-87
2023/11/18 08:35:53;;;;;;;6.97;5.00;;;;;;;10.08;90.81;99035.72;4174688;28;20583;-87
2023/11/18 08:37:56;;;;;;;6.63;5.03;;;;;;;10.09;89.67;99032.22;4171478;28;20629;-86
2023/11/18 08:40:00;;;;;;;8.20;4.77;;;;;;;10.08;90.33;99023.53;4171478;28;20242;-86
2023/11/18 08:42:04;;;;;;;5.78;4.63;;;;;;;10.12;91.00;99025.06;4156476;28;20654;-86
2023/11/18 08:44:09;;;;;;;6.30;4.90;;;;;;;10.12;89.44;99030.28;4176739;28;20233;-86
2023/11/18 08:46:26;;;;;;;7.10;4.47;;;;;;;10.15;90.06;99024.03;4155790;28;20628;-87
2023/11/18 08:48:33;;;;;;;7.50;4.70;;;;;;;10.15;89.96;99031.88;4186060;28;20205;-87
2023/11/18 08:50:40;;;;;;;6.27;3.90;;;;;;;10.16;88.92;99034.38;4170515;28;20633;-87
2023/11/18 08:52:43;;;;;;;6.03;4.13;;;;;;;10.16;89.66;99026.56;4171122;28;20667;-86
2023/11/18 08:57:19;;;;;;;4.43;3.22;;;;;;;10.15;89.40;99017.09;4172778;28;20639;-87
2023/11/18 08:59:24;;;;;;;5.07;4.30;;;;;;;10.14;89.61;99028.41;4174250;28;20207;-87
2023/11/18 09:01:31;;;;;;;5.57;4.07;;;;;;;10.17;89.03;99023.06;4169917;28;20234;-87
2023/11/18 09:03:36;;;;;;;5.57;4.13;;;;;;;10.20;89.86;99022.06;4155035;28;20683;-87
2023/11/18 09:05:41;;;;;;;5.75;3.90;;;;;;;10.23;88.13;99009.69;4175312;28;20590;-89
2023/11/18 09:07:48;;;;;;;5.00;3.42;;;;;;;10.30;88.70;99003.25;4172047;28;20692;-88
2023/11/18 09:09:52;;;;;;;4.57;4.00;;;;;;;10.35;88.61;99007.28;4158733;28;20573;-87
2023/11/18 09:11:57;;;;;;;4.70;4.00;;;;;;;10.40;87.46;99010.50;4171129;28;20641;-88
2023/11/18 09:14:03;;;;;;;4.73;3.57;;;;;;;10.47;87.53;99017.06;4170756;28;21076;-87
2023/11/18 09:16:09;;;;;;;4.10;3.70;;;;;;;10.57;87.32;99018.28;4176904;28;20668;-88
2023/11/18 09:18:12;;;;;;;3.80;3.40;;;;;;;10.63;88.19;99019.69;4188735;28;20626;-87
2023/11/18 09:20:20;;;;;;;6.27;4.17;;;;;;;10.65;86.81;99015.25;4161058;28;20636;-87
2023/11/18 09:22:25;;;;;;;5.55;3.20;;;;;;;10.66;86.53;99017.78;4157863;28;20630;-86
2023/11/18 09:24:30;;;;;;;3.88;3.20;;;;;;;10.64;84.67;99017.00;4190247;28;20355;-87
2023/11/18 09:26:35;;;;;;;4.37;3.10;;;;;;;10.63;86.62;99017.09;4186063;28;20217;-88
2023/11/18 09:28:39;;;;;;;4.55;4.07;;;;;;;10.67;86.98;99013.41;4172075;28;20693;-88
2023/11/18 09:30:49;;;;;;;4.90;3.40;;;;;;;10.78;86.83;99019.72;4186556;28;20256;-88
2023/11/18 09:32:54;;;;;;;5.20;3.20;;;;;;;10.83;86.53;99028.16;4167063;28;20623;-88
2023/11/18 09:34:58;;;;;;;6.72;3.97;;;;;;;10.93;86.83;99026.69;4183576;28;20679;-89
2023/11/18 09:37:04;;;;;;;5.67;3.43;;;;;;;11.02;84.39;99020.97;4171283;28;20202;-88
2023/11/18 09:39:08;;;;;;;4.23;3.10;;;;;;;11.06;85.57;99020.72;4184629;28;20698;-89
2023/11/18 09:41:11;;;;;;;4.70;3.67;;;;;;;11.11;86.03;99023.09;4174152;28;20661;-89
2023/11/18 09:43:16;;;;;;;5.40;3.23;;;;;;;11.13;85.95;99027.31;4187764;28;20629;-86
2023/11/18 09:45:20;;;;;;;4.53;3.50;;;;;;;11.10;84.76;99026.63;4158908;28;20629;-87
2023/11/18 09:47:27;;;;;;;4.70;3.63;;;;;;;11.07;86.34;99018.97;4173790;28;20638;-89
2023/11/18 09:49:38;;;;;;;5.37;3.67;;;;;;;11.09;85.96;99023.16;4169832;28;20203;-89
2023/11/18 09:51:44;;;;;;;4.63;3.50;;;;;;;11.15;85.92;99012.38;4176049;28;20628;-89
2023/11/18 09:53:52;;;;;;;3.90;3.30;;;;;;;11.21;85.20;99017.25;4176205;28;20619;-90